Charco, Texas
Current Conditions -  °F | °C
As of 9:15 AM on Thursday 18 Dec 2014 (Local Time) from KBEA Reporting Station
Haze Haze  
Wind Chill: 19°   Ceiling: 300
Heat Index: 19°   Visibility: 4mi
Dew Point: 19°   Wind: 6mph
Humidity: 100%   Direction: 30°NNE
Pressure: 30.07"   Gusts: NA
Location:  28.6563°N, 97.4287°W
Report Text: KBEA 181515Z AUTO 03005KT 4SM BR OVC003 19/19 A3007 RMK AO2 T01880188
Loading
Personal Weather Stations






























Interactive Weather Map New forecast layout! Learn more

10-Day Weather Forecast

Advertisements
Track Severe Weather on mobile